createdAt,value
2018-06-03T00:01:40.872Z,80.44
2018-06-03T00:04:06.807Z,81.57
2018-06-03T00:06:32.693Z,83.71
2018-06-03T00:08:58.522Z,83.37
2018-06-03T00:11:24.384Z,81.69
2018-06-03T00:13:50.251Z,83.49
2018-06-03T00:16:16.129Z,83.06
2018-06-03T00:18:41.977Z,82.41
2018-06-03T00:21:34.008Z,81.98
2018-06-03T00:23:59.904Z,81.46
2018-06-03T00:26:25.789Z,80.86
2018-06-03T00:28:51.652Z,80.42
2018-06-03T00:31:17.549Z,80.91
2018-06-03T00:33:43.406Z,81.80
2018-06-03T00:36:21.754Z,83.37
2018-06-03T00:38:47.625Z,83.42
2018-06-03T00:41:13.500Z,84.11
2018-06-03T00:43:39.344Z,84.25
2018-06-03T00:46:05.235Z,82.77
2018-06-03T00:48:31.090Z,81.74
2018-06-03T00:50:56.933Z,83.26
2018-06-03T00:53:22.758Z,82.49
2018-06-03T00:55:48.608Z,82.83
2018-06-03T00:58:14.473Z,82.64
2018-06-03T01:00:40.370Z,82.95
2018-06-03T01:03:06.246Z,83.89
2018-06-03T01:05:32.101Z,84.07
2018-06-03T01:07:57.929Z,84.09
2018-06-03T01:10:23.783Z,83.94
2018-06-03T01:12:49.630Z,83.42
2018-06-03T01:15:15.488Z,83.41
2018-06-03T01:17:41.361Z,83.74
2018-06-03T01:20:07.233Z,83.55
2018-06-03T01:22:33.106Z,83.87
2018-06-03T01:24:58.964Z,83.44
2018-06-03T01:27:24.810Z,83.64
2018-06-03T01:29:50.665Z,84.11
2018-06-03T01:32:16.518Z,83.83
2018-06-03T01:34:42.360Z,82.68
2018-06-03T01:37:08.225Z,83.25
2018-06-03T01:39:34.095Z,82.83
2018-06-03T01:41:59.969Z,82.60
2018-06-03T01:44:25.839Z,84.58
2018-06-03T01:46:51.688Z,83.50
2018-06-03T01:49:17.572Z,82.54
2018-06-03T01:51:43.453Z,82.34
2018-06-03T01:54:09.545Z,81.19
2018-06-03T01:56:35.411Z,80.82
2018-06-03T01:59:01.295Z,81.21
2018-06-03T02:01:27.181Z,81.78
2018-06-03T02:03:53.053Z,81.30
2018-06-03T02:06:18.922Z,81.80
2018-06-03T02:08:44.767Z,81.69
2018-06-03T02:11:10.677Z,81.23
2018-06-03T02:13:36.525Z,80.84
2018-06-03T02:16:02.398Z,80.91
2018-06-03T02:18:28.279Z,81.14
2018-06-03T02:20:54.132Z,81.35
2018-06-03T02:23:19.974Z,82.28
2018-06-03T02:25:45.833Z,81.97
2018-06-03T02:28:11.653Z,83.09
2018-06-03T02:30:37.506Z,83.99
2018-06-03T02:33:03.414Z,85.72
2018-06-03T02:35:29.278Z,85.70
2018-06-03T02:37:55.132Z,85.54
2018-06-03T02:40:20.997Z,85.10
2018-06-03T02:42:46.866Z,85.35
2018-06-03T02:45:12.725Z,84.01
2018-06-03T02:47:38.633Z,84.28
2018-06-03T02:50:04.466Z,83.92
2018-06-03T02:52:30.337Z,84.09
2018-06-03T02:54:56.225Z,83.05
2018-06-03T02:57:22.110Z,82.80
2018-06-03T02:59:47.979Z,82.28
2018-06-03T03:02:13.865Z,82.48
2018-06-03T03:04:39.760Z,84.33
2018-06-03T03:07:05.672Z,83.76
2018-06-03T03:09:31.549Z,83.63
2018-06-03T03:11:57.422Z,83.77
2018-06-03T03:14:23.291Z,84.06
2018-06-03T03:16:49.159Z,84.82
2018-06-03T03:19:14.998Z,84.73
2018-06-03T03:21:40.866Z,83.77
2018-06-03T03:24:06.729Z,82.59
2018-06-03T03:26:32.618Z,82.80
2018-06-03T03:28:58.492Z,83.65
2018-06-03T03:31:24.375Z,83.05
2018-06-03T03:33:50.236Z,83.33
2018-06-03T03:36:16.112Z,82.94
2018-06-03T03:38:42.276Z,82.58
2018-06-03T03:41:08.145Z,82.35
2018-06-03T03:43:33.978Z,83.34
2018-06-03T03:45:59.937Z,84.97
2018-06-03T03:48:25.788Z,85.28
2018-06-03T03:50:51.633Z,84.00
2018-06-03T03:53:17.485Z,83.45
2018-06-03T03:55:43.346Z,83.16
2018-06-03T03:58:09.169Z,83.08
2018-06-03T04:00:35.026Z,83.04
2018-06-03T04:03:00.853Z,83.21
2018-06-03T04:05:26.706Z,83.18
2018-06-03T04:07:52.569Z,83.13
2018-06-03T04:10:18.444Z,83.28
2018-06-03T04:12:44.294Z,84.27
2018-06-03T04:15:10.157Z,84.39
2018-06-03T04:17:36.039Z,84.17
2018-06-03T04:20:01.885Z,83.42
2018-06-03T04:22:27.725Z,83.22
2018-06-03T04:24:53.551Z,82.74
2018-06-03T04:27:19.391Z,82.01
2018-06-03T04:29:45.246Z,82.93
2018-06-03T04:32:11.112Z,81.88
2018-06-03T04:34:36.981Z,83.33
2018-06-03T04:37:02.895Z,82.46
2018-06-03T04:39:28.745Z,82.22
2018-06-03T04:41:54.578Z,81.30
2018-06-03T04:44:20.410Z,81.14
2018-06-03T04:46:46.387Z,79.93
2018-06-03T04:49:12.252Z,79.06
2018-06-03T04:51:38.141Z,78.49
2018-06-03T04:54:04.015Z,77.96
2018-06-03T04:56:29.903Z,77.67
2018-06-03T04:58:55.729Z,78.80
2018-06-03T05:01:21.570Z,78.78
2018-06-03T05:03:47.444Z,78.10
2018-06-03T05:06:13.309Z,77.44
2018-06-03T05:08:39.178Z,76.56
2018-06-03T05:11:05.070Z,75.73
2018-06-03T05:13:30.906Z,75.06
2018-06-03T05:15:56.777Z,75.14
2018-06-03T05:18:22.624Z,76.17
2018-06-03T05:20:48.485Z,76.30
2018-06-03T05:23:14.338Z,76.30
2018-06-03T05:25:40.170Z,75.53
2018-06-03T05:28:06.041Z,75.88
2018-06-03T05:30:31.894Z,75.55
2018-06-03T05:32:57.761Z,74.55
2018-06-03T05:35:23.613Z,75.57
2018-06-03T05:37:49.441Z,75.46
2018-06-03T05:40:15.288Z,75.63
2018-06-03T05:42:41.136Z,76.41
2018-06-03T05:45:06.986Z,75.93
2018-06-03T05:47:32.928Z,75.30
2018-06-03T05:49:58.785Z,75.13
2018-06-03T05:52:24.657Z,73.37
2018-06-03T05:54:50.508Z,72.50
2018-06-03T05:57:16.388Z,73.83
2018-06-03T05:59:42.241Z,73.10
2018-06-03T06:02:08.101Z,71.78
2018-06-03T06:04:33.947Z,72.25
2018-06-03T06:06:59.778Z,70.11
2018-06-03T06:09:25.641Z,69.87
2018-06-03T06:11:51.500Z,70.13
2018-06-03T06:14:17.369Z,69.97
2018-06-03T06:16:43.240Z,69.18
2018-06-03T06:19:09.085Z,68.62
2018-06-03T06:21:34.965Z,67.44
2018-06-03T06:24:00.828Z,67.76
2018-06-03T06:26:26.696Z,67.15
2018-06-03T06:28:52.570Z,65.99
2018-06-03T06:31:18.453Z,65.09
2018-06-03T06:33:44.322Z,65.25
2018-06-03T06:36:10.245Z,64.65
2018-06-03T06:38:36.109Z,64.49
2018-06-03T06:41:01.992Z,63.45
2018-06-03T06:43:27.901Z,63.81
2018-06-03T06:45:53.842Z,63.56
2018-06-03T06:48:26.533Z,62.99
2018-06-03T06:50:52.449Z,62.60
2018-06-03T06:53:18.329Z,62.67
2018-06-03T06:55:44.209Z,62.54
2018-06-03T06:58:10.080Z,62.60
2018-06-03T07:00:35.933Z,63.57
2018-06-03T07:03:01.817Z,62.84
2018-06-03T07:05:27.681Z,62.11
2018-06-03T07:07:53.537Z,63.00
2018-06-03T07:10:19.386Z,63.20
2018-06-03T07:12:45.278Z,61.53
2018-06-03T07:15:11.168Z,61.76
2018-06-03T07:17:37.069Z,62.56
2018-06-03T07:20:02.952Z,61.61
2018-06-03T07:22:29.759Z,60.72
2018-06-03T07:24:56.137Z,59.99
2018-06-03T07:27:22.027Z,59.81
2018-06-03T07:29:47.885Z,60.75
2018-06-03T07:32:13.784Z,60.43
2018-06-03T07:34:39.670Z,59.33
2018-06-03T07:37:05.560Z,59.57
2018-06-03T07:39:31.435Z,58.46
2018-06-03T07:41:57.346Z,57.93
2018-06-03T07:44:23.302Z,56.34
2018-06-03T07:46:49.201Z,55.28
2018-06-03T07:49:15.105Z,54.64
2018-06-03T07:51:40.994Z,56.50
2018-06-03T07:54:06.908Z,56.53
2018-06-03T07:56:32.785Z,56.88
2018-06-03T07:58:58.647Z,54.30
2018-06-03T08:01:24.550Z,55.20
2018-06-03T08:03:50.431Z,55.46
2018-06-03T08:06:16.354Z,54.96
2018-06-03T08:08:42.308Z,56.05
2018-06-03T08:11:08.265Z,56.21
2018-06-03T08:13:34.153Z,53.59
2018-06-03T08:16:00.064Z,54.71
2018-06-03T08:18:25.951Z,52.12
2018-06-03T08:20:51.833Z,52.20
2018-06-03T08:23:17.707Z,50.72
2018-06-03T08:25:43.585Z,49.46
2018-06-03T08:28:09.483Z,50.47
2018-06-03T08:30:35.330Z,50.42
2018-06-03T08:33:01.201Z,50.96
2018-06-03T08:35:27.241Z,50.38
2018-06-03T08:37:53.169Z,50.51
2018-06-03T08:40:19.073Z,52.55
2018-06-03T08:42:44.967Z,52.56
2018-06-03T08:45:11.369Z,52.40
2018-06-03T08:47:37.242Z,52.03
2018-06-03T08:50:03.222Z,50.92
2018-06-03T08:52:29.156Z,52.10
2018-06-03T08:54:55.039Z,48.99
2018-06-03T08:57:20.946Z,51.87
2018-06-03T08:59:47.548Z,48.61
2018-06-03T09:02:13.571Z,48.09
2018-06-03T09:04:39.496Z,46.20
2018-06-03T09:07:05.743Z,47.29
2018-06-03T09:09:31.653Z,47.07
2018-06-03T09:11:57.616Z,47.48
2018-06-03T09:14:23.498Z,49.08
2018-06-03T09:16:49.921Z,49.38
2018-06-03T09:19:15.904Z,48.75
2018-06-03T09:21:41.830Z,51.50
2018-06-03T09:24:07.728Z,48.84
2018-06-03T09:26:33.649Z,48.28
2018-06-03T09:28:59.548Z,49.29
2018-06-03T09:31:25.474Z,46.41
2018-06-03T09:33:51.426Z,46.30
2018-06-03T09:36:17.292Z,45.90
2018-06-03T09:38:43.249Z,46.34
2018-06-03T09:41:09.231Z,47.35
2018-06-03T09:43:35.112Z,46.74
2018-06-03T09:46:01.026Z,46.74
2018-06-03T09:48:26.920Z,45.33
2018-06-03T09:50:52.792Z,44.64
2018-06-03T09:53:18.730Z,45.92
2018-06-03T09:55:53.553Z,45.29
2018-06-03T09:58:19.417Z,46.94
2018-06-03T10:00:45.270Z,45.45
2018-06-03T10:03:11.180Z,44.15
2018-06-03T10:05:37.005Z,45.70
2018-06-03T10:08:02.881Z,47.38
2018-06-03T10:10:28.760Z,47.25
2018-06-03T10:12:54.621Z,47.43
2018-06-03T10:15:20.517Z,47.38
2018-06-03T10:17:46.696Z,45.77
2018-06-03T10:20:12.581Z,43.94
2018-06-03T10:22:38.465Z,43.51
2018-06-03T10:25:04.353Z,44.62
2018-06-03T10:27:30.213Z,46.13
2018-06-03T10:29:56.135Z,45.54
2018-06-03T10:32:22.176Z,44.91
2018-06-03T10:34:48.121Z,47.53
2018-06-03T10:37:14.013Z,45.42
2018-06-03T10:39:39.974Z,44.71
2018-06-03T10:42:05.842Z,46.67
2018-06-03T10:44:31.696Z,45.95
2018-06-03T10:46:57.564Z,45.67
2018-06-03T10:49:23.459Z,45.06
2018-06-03T10:51:49.310Z,43.61
2018-06-03T10:54:15.156Z,43.60
2018-06-03T10:56:41.020Z,43.19
2018-06-03T10:59:06.892Z,41.84
2018-06-03T11:01:32.756Z,41.41
2018-06-03T11:03:58.591Z,40.70
2018-06-03T11:06:24.472Z,41.81
2018-06-03T11:08:50.357Z,39.03
2018-06-03T11:11:16.213Z,38.51
2018-06-03T11:13:42.061Z,38.99
2018-06-03T11:16:07.956Z,39.84
2018-06-03T11:18:33.823Z,39.15
2018-06-03T11:20:59.676Z,38.36
2018-06-03T11:23:25.568Z,38.45
2018-06-03T11:25:51.440Z,38.74
2018-06-03T11:28:17.291Z,37.55
2018-06-03T11:30:43.172Z,40.90
2018-06-03T11:33:09.064Z,41.33
2018-06-03T11:35:34.921Z,39.15
2018-06-03T11:38:00.774Z,37.91
2018-06-03T11:40:26.653Z,37.49
2018-06-03T11:42:52.512Z,37.26
2018-06-03T11:45:18.362Z,36.97
2018-06-03T11:47:44.197Z,37.27
2018-06-03T11:50:10.082Z,38.14
2018-06-03T11:52:35.942Z,37.31
2018-06-03T11:55:01.807Z,39.56
2018-06-03T11:57:27.714Z,39.61
2018-06-03T11:59:53.620Z,38.57
2018-06-03T12:02:19.540Z,40.05
2018-06-03T12:05:23.335Z,39.82
2018-06-03T12:07:50.434Z,40.27
2018-06-03T12:10:17.612Z,40.45
2018-06-03T12:12:44.770Z,38.68
2018-06-03T12:15:11.901Z,40.05
2018-06-03T12:17:39.029Z,40.62
2018-06-03T12:20:06.119Z,39.40
2018-06-03T12:22:33.252Z,39.10
2018-06-03T12:25:00.373Z,39.47
2018-06-03T12:27:27.507Z,39.89
2018-06-03T12:29:54.721Z,36.31
2018-06-03T12:32:21.827Z,35.42
2018-06-03T12:34:49.040Z,34.42
2018-06-03T12:37:16.188Z,36.82
2018-06-03T12:39:43.325Z,35.43
2018-06-03T12:42:10.462Z,35.49
2018-06-03T12:44:37.612Z,35.03
2018-06-03T12:47:04.812Z,34.70
2018-06-03T12:49:31.957Z,35.29
2018-06-03T12:51:59.173Z,37.98
2018-06-03T12:54:26.321Z,37.72
2018-06-03T12:56:53.511Z,36.75
2018-06-03T12:59:20.725Z,37.97
2018-06-03T13:01:47.863Z,38.43
2018-06-03T13:04:15.060Z,35.09
2018-06-03T13:06:42.180Z,36.73
2018-06-03T13:09:09.353Z,34.10
2018-06-03T13:11:36.521Z,36.65
2018-06-03T13:14:03.729Z,34.55
2018-06-03T13:16:30.912Z,35.08
2018-06-03T13:18:58.100Z,34.53
2018-06-03T13:21:25.198Z,34.72
2018-06-03T13:23:52.321Z,33.66
2018-06-03T13:26:19.484Z,34.73
2018-06-03T13:28:46.641Z,34.40
2018-06-03T13:31:13.823Z,34.73
2018-06-03T13:33:40.942Z,33.99
2018-06-03T13:36:08.073Z,35.36
2018-06-03T13:38:35.210Z,36.07
2018-06-03T13:41:02.334Z,35.43
2018-06-03T13:43:29.500Z,35.28
2018-06-03T13:45:56.663Z,35.98
2018-06-03T13:48:23.825Z,37.32
2018-06-03T13:50:50.943Z,39.95
2018-06-03T13:53:18.069Z,38.14
2018-06-03T13:55:45.233Z,37.87
2018-06-03T13:58:12.398Z,39.71
2018-06-03T14:00:39.721Z,38.75
2018-06-03T14:03:06.928Z,40.05
2018-06-03T14:05:34.088Z,40.13
2018-06-03T14:08:01.261Z,40.19
2018-06-03T14:10:28.426Z,41.33
2018-06-03T14:12:55.637Z,41.45
2018-06-03T14:15:22.749Z,41.09
2018-06-03T14:17:49.936Z,38.44
2018-06-03T14:20:17.172Z,38.05
2018-06-03T14:22:44.429Z,35.79
2018-06-03T14:25:11.697Z,35.53
2018-06-03T14:27:38.858Z,36.31
2018-06-03T14:30:06.108Z,34.67
2018-06-03T14:32:33.256Z,34.34
2018-06-03T14:35:00.490Z,37.30
2018-06-03T14:37:27.669Z,37.61
2018-06-03T14:39:54.870Z,39.60
2018-06-03T14:42:22.057Z,41.16
2018-06-03T14:44:49.213Z,39.69
2018-06-03T14:47:16.404Z,41.06
2018-06-03T14:49:43.605Z,39.13
2018-06-03T14:52:10.777Z,37.19
2018-06-03T14:54:38.024Z,38.88
2018-06-03T14:57:05.248Z,35.98
2018-06-03T14:59:32.418Z,35.90
2018-06-03T15:01:59.610Z,35.89
2018-06-03T15:04:26.802Z,37.24
2018-06-03T15:06:53.977Z,35.80
2018-06-03T15:09:21.219Z,34.88
2018-06-03T15:11:48.453Z,35.99
2018-06-03T15:14:15.694Z,36.32
2018-06-03T15:16:42.937Z,34.33
2018-06-03T15:19:10.169Z,32.67
2018-06-03T15:21:37.405Z,31.67
2018-06-03T15:24:04.630Z,33.75
2018-06-03T15:26:31.825Z,33.80
2018-06-03T15:28:59.052Z,35.50
2018-06-03T15:31:26.274Z,35.52
2018-06-03T15:33:53.536Z,34.90
2018-06-03T15:36:20.695Z,36.08
2018-06-03T15:38:47.893Z,36.63
2018-06-03T15:41:15.174Z,36.90
2018-06-03T15:43:42.409Z,36.24
2018-06-03T15:46:09.652Z,35.36
2018-06-03T15:48:36.830Z,37.01
2018-06-03T15:51:03.994Z,36.18
2018-06-03T15:53:31.227Z,36.17
2018-06-03T15:55:58.440Z,34.48
2018-06-03T15:58:25.629Z,35.27
2018-06-03T16:00:52.931Z,33.04
2018-06-03T16:03:20.175Z,33.92
2018-06-03T16:05:47.402Z,34.92
2018-06-03T16:08:14.621Z,36.25
2018-06-03T16:10:41.792Z,38.23
2018-06-03T16:13:09.029Z,38.37
2018-06-03T16:15:36.204Z,39.85
2018-06-03T16:18:03.413Z,37.77
2018-06-03T16:20:30.654Z,38.69
2018-06-03T16:22:57.877Z,41.19
2018-06-03T16:25:25.070Z,40.45
2018-06-03T16:27:52.254Z,39.91
2018-06-03T16:30:19.519Z,39.58
2018-06-03T16:32:46.701Z,39.12
2018-06-03T16:35:13.855Z,41.20
2018-06-03T16:37:41.027Z,40.47
2018-06-03T16:40:08.175Z,40.10
2018-06-03T16:42:35.348Z,40.89
2018-06-03T16:45:02.542Z,40.26
2018-06-03T16:47:29.673Z,40.05
2018-06-03T16:49:56.869Z,41.69
2018-06-03T16:52:24.062Z,41.05
2018-06-03T16:54:51.271Z,41.07
2018-06-03T16:57:18.455Z,41.37
2018-06-03T16:59:45.715Z,41.08
2018-06-03T17:02:12.976Z,41.91
2018-06-03T17:04:40.165Z,41.26
2018-06-03T17:07:07.383Z,41.90
2018-06-03T17:09:34.592Z,41.83
2018-06-03T17:12:01.761Z,41.53
2018-06-03T17:14:29.063Z,42.52
2018-06-03T17:16:56.295Z,43.39
2018-06-03T17:19:23.461Z,42.98
2018-06-03T17:21:50.659Z,42.51
2018-06-03T17:24:17.835Z,43.22
2018-06-03T17:26:45.041Z,43.46
2018-06-03T17:29:12.250Z,44.46
2018-06-03T17:31:39.398Z,43.87
2018-06-03T17:34:06.715Z,44.85
2018-06-03T17:36:33.899Z,44.76
2018-06-03T17:39:01.187Z,44.05
2018-06-03T17:41:28.418Z,44.37
2018-06-03T17:43:55.657Z,44.31
2018-06-03T17:46:22.805Z,43.81
2018-06-03T17:48:50.132Z,44.71
2018-06-03T17:51:17.350Z,44.70
2018-06-03T17:53:44.531Z,45.08
2018-06-03T17:56:11.683Z,45.45
2018-06-03T17:58:38.815Z,44.26
2018-06-03T18:01:06.049Z,44.80
2018-06-03T18:03:33.225Z,45.15
2018-06-03T18:06:00.433Z,45.34
2018-06-03T18:08:27.737Z,46.21
2018-06-03T18:10:54.860Z,46.16
2018-06-03T18:13:22.025Z,44.99
2018-06-03T18:15:49.175Z,46.43
2018-06-03T18:18:16.377Z,46.51
2018-06-03T18:20:43.559Z,46.05
2018-06-03T18:23:10.794Z,46.79
2018-06-03T18:25:37.959Z,47.54
2018-06-03T18:28:05.836Z,47.54
2018-06-03T18:30:33.108Z,47.22
2018-06-03T18:33:00.764Z,48.22
2018-06-03T18:35:27.937Z,50.00
2018-06-03T18:37:55.106Z,49.81
2018-06-03T18:40:22.321Z,51.95
2018-06-03T18:42:49.512Z,52.75
2018-06-03T18:45:16.821Z,52.88
2018-06-03T18:47:44.022Z,53.22
2018-06-03T18:50:11.241Z,53.92
2018-06-03T18:52:38.462Z,53.67
2018-06-03T18:55:05.696Z,54.21
2018-06-03T18:57:32.944Z,54.78
2018-06-03T19:00:00.198Z,55.12
2018-06-03T19:02:27.327Z,55.83
2018-06-03T19:04:54.487Z,56.15
2018-06-03T19:07:21.732Z,56.66
2018-06-03T19:09:49.005Z,56.63
2018-06-03T19:12:16.237Z,57.02
2018-06-03T19:14:43.459Z,57.54
2018-06-03T19:17:10.660Z,58.35
2018-06-03T19:19:37.898Z,57.99
2018-06-03T19:22:05.124Z,58.42
2018-06-03T19:24:32.376Z,58.45
2018-06-03T19:26:59.572Z,59.46
2018-06-03T19:29:26.762Z,59.79
2018-06-03T19:31:54.010Z,59.23
2018-06-03T19:34:21.322Z,60.32
2018-06-03T19:36:48.505Z,60.39
2018-06-03T19:39:15.664Z,60.41
2018-06-03T19:41:42.798Z,60.61
2018-06-03T19:44:10.020Z,59.64
2018-06-03T19:46:37.201Z,59.31
2018-06-03T19:49:04.507Z,59.57
2018-06-03T19:51:31.820Z,59.36
2018-06-03T19:53:58.980Z,62.43
2018-06-03T19:56:26.233Z,62.17
2018-06-03T19:58:53.454Z,61.63
2018-06-03T20:01:20.651Z,61.05
2018-06-03T20:03:47.941Z,61.86
2018-06-03T20:06:15.164Z,61.38
2018-06-03T20:08:42.490Z,63.78
2018-06-03T20:11:09.678Z,63.22
2018-06-03T20:13:36.853Z,62.75
2018-06-03T20:16:04.239Z,63.53
2018-06-03T20:18:31.469Z,63.05
2018-06-03T20:20:58.702Z,63.30
2018-06-03T20:23:25.924Z,63.64
2018-06-03T20:25:53.120Z,63.79
2018-06-03T20:28:20.377Z,63.69
2018-06-03T20:30:47.581Z,62.89
2018-06-03T20:33:14.842Z,61.33
2018-06-03T20:35:42.096Z,62.32
2018-06-03T20:38:09.323Z,63.92
2018-06-03T20:40:36.529Z,63.46
2018-06-03T20:43:03.769Z,63.14
2018-06-03T20:45:31.009Z,63.33
2018-06-03T20:47:58.224Z,62.80
2018-06-03T20:50:25.462Z,62.96
2018-06-03T20:52:52.656Z,62.78
2018-06-03T20:55:19.870Z,63.25
2018-06-03T20:57:47.087Z,63.49
2018-06-03T21:00:14.317Z,63.48
2018-06-03T21:02:41.523Z,63.75
2018-06-03T21:05:08.686Z,63.59
2018-06-03T21:07:35.957Z,62.72
2018-06-03T21:10:03.275Z,62.70
2018-06-03T21:12:30.488Z,63.04
2018-06-03T21:14:57.661Z,62.99
2018-06-03T21:17:24.844Z,64.00
2018-06-03T21:19:52.076Z,64.92
2018-06-03T21:22:19.377Z,63.91
2018-06-03T21:24:46.619Z,66.46
2018-06-03T21:27:14.316Z,66.66
2018-06-03T21:29:41.561Z,69.75
2018-06-03T21:32:08.795Z,70.03
2018-06-03T21:34:35.953Z,70.00
2018-06-03T21:37:03.118Z,68.57
2018-06-03T21:39:30.339Z,67.91
2018-06-03T21:41:57.581Z,66.56
2018-06-03T21:44:24.794Z,66.69
2018-06-03T21:46:51.998Z,67.23
2018-06-03T21:49:19.255Z,68.49
2018-06-03T21:51:46.488Z,69.08
2018-06-03T21:54:13.679Z,68.83
2018-06-03T21:56:40.884Z,69.02
2018-06-03T21:59:08.118Z,68.86
2018-06-03T22:01:35.357Z,68.83
2018-06-03T22:04:02.581Z,70.22
2018-06-03T22:06:29.725Z,71.43
2018-06-03T22:08:56.969Z,71.42
2018-06-03T22:11:24.160Z,71.73
2018-06-03T22:13:51.357Z,71.42
2018-06-03T22:16:18.592Z,70.96
2018-06-03T22:18:45.801Z,71.32
2018-06-03T22:21:12.964Z,70.72
2018-06-03T22:23:40.229Z,72.41
2018-06-03T22:26:07.442Z,70.97
2018-06-03T22:28:34.681Z,71.99
2018-06-03T22:31:01.989Z,73.22
2018-06-03T22:33:29.149Z,74.41
2018-06-03T22:35:56.353Z,75.20
2018-06-03T22:38:23.540Z,74.94
2018-06-03T22:40:50.802Z,75.21
2018-06-03T22:43:17.965Z,77.09
2018-06-03T22:45:45.129Z,75.90
2018-06-03T22:48:12.348Z,75.97
2018-06-03T22:50:39.515Z,75.63
2018-06-03T22:53:06.736Z,75.20
2018-06-03T22:55:33.872Z,74.81
2018-06-03T22:58:00.998Z,75.38
2018-06-03T23:00:32.083Z,75.20
2018-06-03T23:03:04.972Z,74.89
2018-06-03T23:05:32.154Z,74.55
2018-06-03T23:07:59.329Z,74.62
2018-06-03T23:10:26.599Z,75.12
2018-06-03T23:12:53.798Z,75.89
2018-06-03T23:15:20.971Z,75.78
2018-06-03T23:17:48.102Z,74.92
2018-06-03T23:20:15.264Z,75.33
2018-06-03T23:22:42.448Z,76.22
2018-06-03T23:25:09.562Z,77.27
2018-06-03T23:27:36.753Z,78.15
2018-06-03T23:30:04.010Z,78.17
2018-06-03T23:32:31.149Z,77.62
2018-06-03T23:34:58.311Z,77.53
2018-06-03T23:37:25.480Z,77.12
2018-06-03T23:39:52.643Z,77.15
2018-06-03T23:42:19.855Z,76.94
2018-06-03T23:44:47.015Z,77.49
2018-06-03T23:47:14.192Z,76.45
2018-06-03T23:49:41.357Z,77.58
2018-06-03T23:52:08.602Z,77.15
2018-06-03T23:54:35.722Z,78.97
2018-06-03T23:57:02.890Z,78.80
2018-06-03T23:59:30.016Z,78.25
